Time;durP1;ratioP1;P1;durP2;ratioP2;P2;SDS_P1;SDS_P2;PMS_P1;PMS_P2;Temp;Humidity;BMP_temperature;BMP_pressure;BME280_temperature;BME280_humidity;BME280_pressure;Samples;Min_cycle;Max_cycle;Signal;HPM_P1;HPM_P2
2021/08/06 00:01:59;;;;;;;;;2.75;2.00;;;;;18.90;77.19;100086.09;5067515;27;45869;-71
2021/08/06 00:04:24;;;;;;;;;3.00;2.00;;;;;18.91;76.64;100084.22;5062018;28;45962;-69
2021/08/06 00:06:49;;;;;;;;;5.25;1.25;;;;;18.94;77.25;100089.16;5069262;28;45538;-67
2021/08/06 00:09:15;;;;;;;;;3.00;2.50;;;;;18.91;76.21;100087.72;5049817;28;45783;-68
2021/08/06 00:11:40;;;;;;;;;3.75;2.00;;;;;18.93;76.29;100084.03;5068917;28;45658;-70
2021/08/06 00:14:06;;;;;;;;;5.25;2.00;;;;;18.92;75.62;100091.25;5063479;27;45779;-68
2021/08/06 00:16:33;;;;;;;;;3.00;1.25;;;;;18.95;76.03;100095.34;5068069;28;45484;-69
2021/08/06 00:18:58;;;;;;;;;2.00;2.00;;;;;18.91;75.90;100084.22;5070956;28;45946;-69
2021/08/06 00:21:24;;;;;;;;;3.75;3.75;;;;;18.93;75.84;100092.88;5065704;28;46011;-73
2021/08/06 00:23:50;;;;;;;;;4.00;2.00;;;;;18.96;75.67;100095.09;5066331;27;45439;-73
2021/08/06 00:26:15;;;;;;;;;3.50;1.50;;;;;18.98;75.66;100094.88;5068446;27;45543;-65
2021/08/06 00:28:42;;;;;;;;;3.25;2.00;;;;;18.98;75.62;100095.69;5065580;27;45579;-67
2021/08/06 00:31:08;;;;;;;;;1.75;1.75;;;;;18.98;75.30;100093.03;5070622;28;45395;-68
2021/08/06 00:33:33;;;;;;;;;2.50;2.00;;;;;18.98;75.29;100100.25;5046293;28;45530;-67
2021/08/06 00:35:59;;;;;;;;;3.50;1.00;;;;;18.98;75.29;100101.06;5066671;28;45533;-68
2021/08/06 00:38:24;;;;;;;;;1.25;1.25;;;;;18.98;74.81;100095.69;5052050;28;45522;-73
2021/08/06 00:40:50;;;;;;;;;1.75;1.75;;;;;18.97;75.13;100087.91;5066305;27;46116;-72
2021/08/06 00:43:15;;;;;;;;;3.25;1.75;;;;;18.99;75.47;100100.03;5067854;28;45546;-69
2021/08/06 00:45:41;;;;;;;;;2.25;1.75;;;;;19.00;75.24;100093.63;5065980;28;45563;-66
2021/08/06 00:48:07;;;;;;;;;1.75;1.50;;;;;18.98;75.13;100101.06;5067195;28;45467;-66
2021/08/06 00:50:32;;;;;;;;;1.00;1.00;;;;;18.97;75.06;100103.97;5051219;28;48207;-69
2021/08/06 00:52:59;;;;;;;;;0.75;0.75;;;;;18.97;75.70;100098.63;5068047;28;45650;-68
2021/08/06 00:55:24;;;;;;;;;2.50;1.25;;;;;18.92;75.48;100093.91;5068359;27;45481;-72
2021/08/06 00:57:50;;;;;;;;;2.25;1.50;;;;;18.91;74.64;100089.59;5046627;28;45711;-67
2021/08/06 01:00:16;;;;;;;;;1.00;1.00;;;;;18.90;75.08;100091.44;5066129;28;45980;-71
2021/08/06 01:02:56;;;;;;;;;1.00;1.00;;;;;18.90;75.11;100096.81;5049759;28;45457;-71
2021/08/06 01:05:27;;;;;;;;;1.75;1.75;;;;;18.90;74.77;100093.31;5041901;28;45522;-71
2021/08/06 01:08:04;;;;;;;;;0.75;0.75;;;;;18.88;75.23;100092.72;5066052;27;45537;-71
2021/08/06 01:10:44;;;;;;;;;1.25;0.75;;;;;18.90;74.94;100098.66;5066104;28;45491;-72
2021/08/06 01:13:13;;;;;;;;;3.00;2.00;;;;;18.88;74.60;100101.56;5069696;28;45573;-68
2021/08/06 01:15:41;;;;;;;;;1.00;1.00;;;;;18.87;74.52;100093.75;5064707;28;45413;-68
2021/08/06 01:18:08;;;;;;;;;3.00;2.00;;;;;18.88;74.77;100101.56;5066945;28;45464;-75
2021/08/06 01:20:38;;;;;;;;;2.50;1.50;;;;;18.88;74.66;100093.53;5069613;28;45519;-70
2021/08/06 01:23:07;;;;;;;;;4.00;2.25;;;;;18.89;74.59;100102.38;5068598;27;45391;-70
2021/08/06 01:25:56;;;;;;;;;1.50;1.25;;;;;18.89;74.68;100094.34;5069145;28;45452;-68
2021/08/06 01:28:25;;;;;;;;;2.25;1.25;;;;;18.87;74.66;100093.75;5069083;27;45478;-68
2021/08/06 01:30:51;;;;;;;;;3.50;1.00;;;;;18.86;74.76;100098.28;5069262;28;45425;-68
2021/08/06 01:33:18;;;;;;;;;3.50;2.00;;;;;18.86;74.75;100095.59;5045664;28;46329;-72
2021/08/06 01:35:44;;;;;;;;;3.00;2.25;;;;;18.86;74.93;100092.91;5045872;28;45565;-66
2021/08/06 01:38:12;;;;;;;;;3.75;1.75;;;;;18.87;74.94;100099.13;5064977;28;45420;-66
2021/08/06 01:41:19;;;;;;;;;2.25;2.25;;;;;18.87;74.53;100093.75;5067851;28;45607;-68
2021/08/06 01:43:57;;;;;;;;;2.00;1.75;;;;;18.84;74.61;100088.81;5005013;28;45474;-68
2021/08/06 01:47:01;;;;;;;;;1.75;1.75;;;;;18.83;74.74;100097.91;5003556;28;45557;-75
2021/08/06 01:49:33;;;;;;;;;3.00;1.75;;;;;18.81;74.59;100090.06;5002855;28;45523;-67
2021/08/06 01:52:04;;;;;;;;;2.00;2.00;;;;;18.82;74.92;100080.22;5007356;28;45505;-68
2021/08/06 01:54:32;;;;;;;;;2.00;1.50;;;;;18.82;74.74;100096.28;5003044;28;45631;-70
2021/08/06 01:56:58;;;;;;;;;2.00;1.50;;;;;18.81;75.02;100091.94;5002412;28;45480;-72
2021/08/06 01:59:26;;;;;;;;;4.25;1.75;;;;;18.81;74.87;100091.94;5004659;28;45556;-69
2021/08/06 02:01:52;;;;;;;;;1.75;1.25;;;;;18.79;74.80;100096.69;5005230;28;45876;-75
2021/08/06 02:04:18;;;;;;;;;4.50;2.00;;;;;18.78;74.61;100090.53;5006073;28;45509;-68
2021/08/06 02:06:44;;;;;;;;;2.50;1.75;;;;;18.77;74.99;100085.38;5006415;28;45629;-75
2021/08/06 02:09:17;;;;;;;;;2.00;2.00;;;;;18.75;75.10;100087.44;5004894;28;45574;-72
2021/08/06 02:11:43;;;;;;;;;0.75;0.75;;;;;18.73;74.69;100092.19;5005457;28;46493;-68
2021/08/06 02:14:10;;;;;;;;;3.75;2.25;;;;;18.72;74.62;100087.84;5006011;28;45733;-69
2021/08/06 02:16:37;;;;;;;;;1.00;1.00;;;;;18.72;74.96;100095.88;5004230;28;45659;-70
2021/08/06 02:19:03;;;;;;;;;1.50;1.50;;;;;18.70;74.66;100090.78;5005647;28;45570;-75
2021/08/06 02:21:31;;;;;;;;;3.75;2.75;;;;;18.69;74.50;100095.31;5062238;28;45919;-72
2021/08/06 02:24:02;;;;;;;;;2.00;2.00;;;;;18.69;74.68;100103.34;5065890;28;45604;-72
2021/08/06 02:26:29;;;;;;;;;3.00;2.00;;;;;18.68;74.37;100100.88;5066408;28;45534;-76
2021/08/06 02:28:55;;;;;;;;;3.75;1.50;;;;;18.66;74.45;100102.94;5067390;27;45566;-72
2021/08/06 02:31:22;;;;;;;;;3.00;2.00;;;;;18.63;74.65;100101.53;5071315;28;45449;-70
2021/08/06 02:33:47;;;;;;;;;2.25;2.25;;;;;18.63;74.16;100108.72;5072959;28;46713;-66
2021/08/06 02:36:13;;;;;;;;;1.75;1.75;;;;;18.59;74.07;100108.34;5052828;28;45947;-72
2021/08/06 02:38:39;;;;;;;;;3.25;2.75;;;;;18.58;74.21;100125.44;5070052;28;45946;-75
2021/08/06 02:41:04;;;;;;;;;1.50;1.50;;;;;18.56;74.31;100114.13;5069761;28;45602;-75
2021/08/06 02:43:30;;;;;;;;;2.25;2.25;;;;;18.58;74.12;100124.63;5069903;27;45609;-75
2021/08/06 02:45:55;;;;;;;;;1.00;1.00;;;;;18.57;74.08;100123.81;5071416;28;45854;-68
2021/08/06 02:48:20;;;;;;;;;3.25;2.25;;;;;18.57;74.12;100126.47;5071245;28;45621;-69
2021/08/06 02:50:46;;;;;;;;;2.50;2.50;;;;;18.56;73.92;100129.38;5068714;28;46020;-71
2021/08/06 02:53:12;;;;;;;;;1.75;1.75;;;;;18.54;73.80;100116.19;5071312;27;45494;-69
2021/08/06 02:55:37;;;;;;;;;1.75;1.75;;;;;18.54;73.55;100128.75;5071087;28;45637;-69
2021/08/06 02:58:03;;;;;;;;;3.50;0.50;;;;;18.52;73.25;100118.28;5072967;28;45515;-72
2021/08/06 03:00:29;;;;;;;;;2.75;0.75;;;;;18.51;73.43;100116.63;5070050;28;46274;-72
2021/08/06 03:02:55;;;;;;;;;3.00;3.00;;;;;18.47;73.61;100118.94;5068337;28;45508;-75
2021/08/06 03:05:20;;;;;;;;;2.75;2.00;;;;;18.47;73.07;100132.31;5070648;28;45459;-72
2021/08/06 03:07:52;;;;;;;;;1.75;1.75;;;;;18.42;72.93;100118.75;5068986;28;45998;-75
2021/08/06 03:10:19;;;;;;;;;2.75;0.50;;;;;18.38;73.27;100122.06;5069543;28;46195;-66
2021/08/06 03:12:46;;;;;;;;;2.25;2.25;;;;;18.35;73.27;100127.88;5067968;28;45459;-68
2021/08/06 03:15:12;;;;;;;;;2.00;2.00;;;;;18.34;73.11;100136.91;5047414;28;45712;-75
2021/08/06 03:17:41;;;;;;;;;2.50;1.00;;;;;18.31;72.84;100127.47;5068069;27;45516;-70
2021/08/06 03:20:08;;;;;;;;;1.00;1.00;;;;;18.29;73.13;100136.72;5069110;27;45649;-68
2021/08/06 03:22:34;;;;;;;;;5.25;2.50;;;;;18.26;73.13;100136.13;5069171;27;45514;-72
2021/08/06 03:24:59;;;;;;;;;3.00;2.00;;;;;18.24;72.99;100138.19;5071239;28;45408;-69
2021/08/06 03:27:24;;;;;;;;;1.75;0.50;;;;;18.23;73.47;100136.56;5068372;27;45477;-69
2021/08/06 03:29:50;;;;;;;;;1.00;0.00;;;;;18.24;73.47;100137.38;5049137;28;46987;-69
2021/08/06 03:32:15;;;;;;;;;2.25;2.25;;;;;18.24;73.24;100135.50;5069706;27;45492;-69
2021/08/06 03:34:40;;;;;;;;;1.00;1.00;;;;;18.23;73.22;100141.91;5068393;27;45512;-72
2021/08/06 03:37:06;;;;;;;;;2.00;1.75;;;;;18.21;73.22;100141.28;5071080;28;45886;-70
2021/08/06 03:39:31;;;;;;;;;2.50;1.25;;;;;18.22;72.73;100140.28;5068109;27;45452;-74
2021/08/06 03:41:57;;;;;;;;;3.00;0.50;;;;;18.22;72.92;100139.44;5065347;27;45594;-68
2021/08/06 03:44:22;;;;;;;;;1.00;1.00;;;;;18.21;72.61;100148.50;5068716;27;45697;-75
2021/08/06 03:46:47;;;;;;;;;1.50;1.50;;;;;18.21;72.70;100145.81;5048358;28;45639;-67
2021/08/06 03:49:13;;;;;;;;;1.00;1.00;;;;;18.21;72.71;100149.31;5071303;28;45473;-69
2021/08/06 03:51:38;;;;;;;;;1.00;0.50;;;;;18.21;72.85;100143.16;5067863;28;45587;-71
2021/08/06 03:54:04;;;;;;;;;1.25;1.25;;;;;18.20;72.75;100147.69;5068791;27;45496;-68
2021/08/06 03:56:29;;;;;;;;;1.25;1.00;;;;;18.19;72.85;100153.25;5068795;28;45634;-68
2021/08/06 03:58:54;;;;;;;;;0.50;0.50;;;;;18.18;72.81;100143.59;5058620;27;45528;-68
2021/08/06 04:01:20;;;;;;;;;3.00;1.25;;;;;18.17;72.37;100153.44;5060614;27;45468;-70
2021/08/06 04:03:45;;;;;;;;;1.50;0.50;;;;;18.16;72.21;100157.16;5068737;28;45851;-72
2021/08/06 04:06:11;;;;;;;;;1.50;1.50;;;;;18.14;73.03;100159.22;5061916;27;45783;-71
2021/08/06 04:08:36;;;;;;;;;2.00;2.00;;;;;18.11;72.89;100159.66;5063219;27;46402;-69
2021/08/06 04:11:02;;;;;;;;;1.25;1.25;;;;;18.09;72.99;100161.72;5067799;28;45556;-71
2021/08/06 04:13:27;;;;;;;;;1.50;1.50;;;;;18.10;72.81;100170.56;5046093;27;45428;-79
2021/08/06 04:15:52;;;;;;;;;3.00;2.00;;;;;18.09;72.68;100167.06;5062857;28;45508;-66
2021/08/06 04:18:18;;;;;;;;;2.00;0.00;;;;;18.10;72.68;100168.72;5067498;27;46102;-68
2021/08/06 04:20:43;;;;;;;;;2.25;2.25;;;;;18.09;72.68;100167.06;5069610;27;45682;-67
2021/08/06 04:23:09;;;;;;;;;2.50;1.75;;;;;18.09;72.51;100177.75;5065869;27;45481;-69
2021/08/06 04:25:34;;;;;;;;;1.00;1.00;;;;;18.09;72.61;100171.59;5067288;28;45541;-70
2021/08/06 04:28:00;;;;;;;;;3.25;2.00;;;;;18.09;72.18;100176.94;5056393;28;45886;-68
2021/08/06 04:30:25;;;;;;;;;2.25;2.00;;;;;18.08;72.09;100186.00;5064796;28;45568;-70
2021/08/06 04:32:50;;;;;;;;;2.25;1.00;;;;;18.07;72.08;100193.19;5065423;28;45487;-73
2021/08/06 04:35:18;;;;;;;;;0.50;0.50;;;;;18.08;72.24;100188.69;5061533;27;45503;-67
2021/08/06 04:37:51;;;;;;;;;0.50;0.25;;;;;18.09;72.14;100193.81;5064808;27;45738;-70
2021/08/06 04:40:18;;;;;;;;;2.75;1.50;;;;;18.07;71.93;100195.88;5057323;28;45619;-71
2021/08/06 04:42:43;;;;;;;;;3.25;1.00;;;;;18.06;71.78;100199.59;5043315;28;45890;-68
2021/08/06 04:45:09;;;;;;;;;1.75;1.75;;;;;18.06;71.60;100210.28;5067004;28;45516;-68
2021/08/06 04:47:35;;;;;;;;;1.25;1.00;;;;;18.06;71.89;100202.25;5042615;28;46948;-73
2021/08/06 04:50:01;;;;;;;;;2.00;1.25;;;;;18.06;71.56;100210.28;5064582;27;45522;-70
2021/08/06 04:52:26;;;;;;;;;1.75;1.00;;;;;18.06;71.36;100210.28;5064305;28;45437;-67
2021/08/06 04:54:51;;;;;;;;;0.50;0.50;;;;;18.06;71.55;100210.28;5057444;28;45502;-73
2021/08/06 04:57:17;;;;;;;;;1.75;1.00;;;;;18.06;71.42;100202.25;5063000;27;45523;-67
2021/08/06 04:59:42;;;;;;;;;3.50;2.00;;;;;18.08;71.45;100205.53;5061839;27;45475;-70
2021/08/06 05:02:07;;;;;;;;;1.00;0.25;;;;;18.10;71.13;100216.84;5065447;27;45545;-66
2021/08/06 05:04:33;;;;;;;;;2.50;1.75;;;;;18.10;71.17;100222.22;5070917;28;45393;-69
2021/08/06 05:06:58;;;;;;;;;1.00;1.00;;;;;18.11;71.07;100212.31;5064674;28;46121;-75
2021/08/06 05:09:23;;;;;;;;;3.00;1.00;;;;;18.10;71.25;100214.19;5048387;28;45488;-67
2021/08/06 05:11:49;;;;;;;;;1.00;1.00;;;;;18.14;71.19;100218.06;5063256;28;45496;-75
2021/08/06 05:14:14;;;;;;;;;0.75;0.50;;;;;18.15;70.86;100216.19;5069492;28;45478;-70
2021/08/06 05:16:40;;;;;;;;;2.00;1.00;;;;;18.14;71.05;100218.06;5069502;27;45731;-69
2021/08/06 05:19:05;;;;;;;;;3.00;1.50;;;;;18.15;70.51;100227.75;5069471;28;45602;-69
2021/08/06 05:21:30;;;;;;;;;2.00;2.00;;;;;18.16;70.78;100225.88;5061527;27;45570;-74
2021/08/06 05:23:56;;;;;;;;;1.50;0.50;;;;;18.17;70.98;100232.84;5060207;28;45484;-67
2021/08/06 05:26:21;;;;;;;;;0.50;0.50;;;;;18.20;71.27;100227.09;5065900;27;46479;-74
2021/08/06 05:28:47;;;;;;;;;1.50;1.00;;;;;18.22;71.17;100233.03;5068017;28;45516;-70
2021/08/06 05:31:12;;;;;;;;;1.75;1.75;;;;;18.23;70.84;100224.81;5070000;28;45593;-67
2021/08/06 05:33:38;;;;;;;;;2.75;2.00;;;;;18.25;70.96;100230.78;5067229;28;45409;-73
2021/08/06 05:36:03;;;;;;;;;2.50;1.50;;;;;18.27;71.03;100223.38;5069522;28;45457;-67
2021/08/06 05:38:28;;;;;;;;;1.25;0.50;;;;;18.30;71.44;100221.28;5068639;27;45729;-68
2021/08/06 05:40:54;;;;;;;;;1.25;1.00;;;;;18.29;70.44;100227.69;5067114;27;45425;-73
2021/08/06 05:43:19;;;;;;;;;1.00;1.00;;;;;18.27;70.25;100230.56;5069060;28;45532;-68
2021/08/06 05:45:44;;;;;;;;;1.25;1.25;;;;;18.26;70.58;100228.91;5069466;28;45449;-67
2021/08/06 05:48:13;;;;;;;;;1.50;0.50;;;;;18.26;70.60;100231.59;5064740;28;45576;-72
2021/08/06 05:50:41;;;;;;;;;1.00;1.00;;;;;18.25;70.67;100230.78;5070901;27;45420;-69
2021/08/06 05:53:07;;;;;;;;;2.25;1.00;;;;;18.27;70.65;100223.38;5067950;28;45476;-73
2021/08/06 05:55:32;;;;;;;;;0.50;0.50;;;;;18.33;70.79;100226.22;5067257;28;45818;-67
2021/08/06 05:57:58;;;;;;;;;0.75;0.25;;;;;18.37;70.59;100225.59;5069109;28;45472;-67
2021/08/06 06:00:24;;;;;;;;;0.00;0.00;;;;;18.38;70.26;100229.91;5057850;28;45563;-69
2021/08/06 06:02:50;;;;;;;;;1.50;0.50;;;;;18.40;70.55;100229.69;5062619;27;45530;-70
2021/08/06 06:05:16;;;;;;;;;1.50;1.00;;;;;18.39;70.22;100233.41;5043298;28;46378;-67
2021/08/06 06:07:43;;;;;;;;;1.00;0.50;;;;;18.39;70.56;100241.41;5067160;27;45468;-69
2021/08/06 06:10:09;;;;;;;;;0.50;0.50;;;;;18.41;70.23;100244.72;5052894;28;45436;-69
2021/08/06 06:12:35;;;;;;;;;1.50;0.50;;;;;18.40;70.15;100243.06;5070829;28;45536;-71
2021/08/06 06:15:00;;;;;;;;;2.25;0.50;;;;;18.40;69.88;100243.88;5066841;27;46011;-73
2021/08/06 06:17:25;;;;;;;;;1.50;1.25;;;;;18.42;70.38;100243.66;5064667;28;45845;-76
2021/08/06 06:19:51;;;;;;;;;0.25;0.25;;;;;18.46;70.34;100247.56;5049186;28;45777;-72
2021/08/06 06:22:17;;;;;;;;;0.25;0.00;;;;;18.50;70.36;100246.13;5070793;28;45472;-65
2021/08/06 06:24:42;;;;;;;;;1.25;1.00;;;;;18.50;70.14;100240.75;5071276;27;46121;-77
2021/08/06 06:27:09;;;;;;;;;2.00;1.00;;;;;18.50;70.04;100246.13;5073673;28;46268;-77
2021/08/06 06:29:34;;;;;;;;;1.25;1.00;;;;;18.55;70.00;100251.66;5070034;28;45464;-75
2021/08/06 06:32:00;;;;;;;;;1.25;1.25;;;;;18.60;69.02;100248.34;5064085;28;45493;-71
2021/08/06 06:34:25;;;;;;;;;1.00;1.00;;;;;18.59;69.60;100247.50;5061970;28;46664;-70
2021/08/06 06:36:50;;;;;;;;;1.25;0.25;;;;;18.63;70.15;100250.56;5064619;28;45539;-67
2021/08/06 06:39:16;;;;;;;;;0.00;0.00;;;;;18.66;69.53;100242.94;5057997;27;45617;-70
2021/08/06 06:41:41;;;;;;;;;2.00;1.00;;;;;18.70;69.88;100244.16;5063227;28;45623;-70
2021/08/06 06:44:06;;;;;;;;;1.00;1.00;;;;;18.72;69.57;100238.59;5064834;27;46043;-68
2021/08/06 06:46:32;;;;;;;;;2.00;2.00;;;;;18.80;69.64;100249.06;5055022;27;45730;-68
2021/08/06 06:48:57;;;;;;;;;1.00;1.00;;;;;18.91;69.51;100239.53;5063014;28;45866;-67
2021/08/06 06:51:22;;;;;;;;;1.50;0.50;;;;;18.98;69.01;100251.00;5063082;27;45784;-71
2021/08/06 06:53:48;;;;;;;;;1.00;0.00;;;;;19.08;68.93;100250.53;5068222;27;46213;-73
2021/08/06 06:56:13;;;;;;;;;3.00;1.00;;;;;19.15;68.86;100263.88;5074185;28;45511;-67
2021/08/06 06:58:39;;;;;;;;;0.00;0.00;;;;;19.19;68.64;100273.13;5071947;28;45524;-67
2021/08/06 07:01:05;;;;;;;;;0.00;0.00;;;;;19.22;67.56;100280.75;5070169;28;45498;-74
2021/08/06 07:03:30;;;;;;;;;1.50;0.00;;;;;19.19;68.21;100278.47;5069973;27;46241;-66
2021/08/06 07:05:56;;;;;;;;;0.00;0.00;;;;;19.19;68.40;100281.16;5074476;27;45520;-78
2021/08/06 07:08:23;;;;;;;;;0.75;0.75;;;;;19.23;68.31;100274.34;5074562;28;45525;-68
2021/08/06 07:10:48;;;;;;;;;1.25;0.00;;;;;19.26;68.21;100277.41;5050989;28;45598;-76
2021/08/06 07:13:13;;;;;;;;;2.25;0.00;;;;;19.27;68.03;100275.53;5074076;28;45405;-71
2021/08/06 07:15:39;;;;;;;;;2.25;1.00;;;;;19.29;67.76;100274.28;5063683;27;49376;-71
2021/08/06 07:18:05;;;;;;;;;0.50;0.50;;;;;19.32;68.08;100267.69;5067196;27;45807;-68
2021/08/06 07:20:30;;;;;;;;;0.50;0.25;;;;;19.36;67.61;100271.53;5064715;27;45441;-66
2021/08/06 07:22:56;;;;;;;;;1.00;0.75;;;;;19.39;67.33;100262.28;5050849;28;45514;-70
2021/08/06 07:25:21;;;;;;;;;3.75;0.75;;;;;19.43;66.74;100269.63;5062634;28;46703;-73
2021/08/06 07:27:47;;;;;;;;;0.00;0.00;;;;;19.42;67.71;100278.72;5071749;28;45440;-74
2021/08/06 07:30:13;;;;;;;;;3.50;0.50;;;;;19.47;66.99;100281.56;5069958;28;45482;-69
2021/08/06 07:32:39;;;;;;;;;2.25;0.25;;;;;19.45;66.64;100286.31;5073432;28;46497;-72
2021/08/06 07:35:05;;;;;;;;;1.50;0.50;;;;;19.47;67.19;100286.94;5064312;27;45500;-69
2021/08/06 07:37:31;;;;;;;;;2.00;0.75;;;;;19.49;67.27;100284.84;5060306;27;45728;-78
2021/08/06 07:39:57;;;;;;;;;0.50;0.50;;;;;19.52;67.08;100286.28;5068571;28;45600;-68
2021/08/06 07:42:22;;;;;;;;;1.75;1.75;;;;;19.52;66.83;100283.59;5064246;27;45519;-69
2021/08/06 07:44:48;;;;;;;;;0.75;0.75;;;;;19.48;67.05;100293.91;5067860;28;45607;-77
2021/08/06 07:47:13;;;;;;;;;2.00;1.00;;;;;19.51;67.23;100301.53;5050112;28;45642;-78
2021/08/06 07:49:41;;;;;;;;;2.00;1.00;;;;;19.55;66.86;100299.22;5074080;28;45420;-69
2021/08/06 07:52:08;;;;;;;;;1.75;0.25;;;;;19.57;67.00;100294.47;5072209;28;46166;-67
2021/08/06 07:54:34;;;;;;;;;1.75;0.75;;;;;19.62;66.80;100301.88;5071196;28;45452;-75
2021/08/06 07:56:59;;;;;;;;;1.00;1.00;;;;;19.67;66.49;100308.22;5065608;28;45695;-77
2021/08/06 07:59:25;;;;;;;;;2.75;1.00;;;;;19.81;66.82;100300.91;5066732;27;45620;-69
2021/08/06 08:01:51;;;;;;;;;1.00;0.75;;;;;19.93;66.51;100296.47;5067908;27;45479;-69
2021/08/06 08:04:16;;;;;;;;;0.00;0.00;;;;;20.05;66.18;100307.25;5070591;28;45619;-67
2021/08/06 08:06:41;;;;;;;;;0.75;0.50;;;;;20.13;65.20;100306.16;5069907;28;45547;-68
2021/08/06 08:09:07;;;;;;;;;0.00;0.00;;;;;20.08;65.47;100309.50;5067332;27;45570;-69
2021/08/06 08:11:32;;;;;;;;;0.75;0.75;;;;;20.04;65.85;100310.19;5066925;28;45491;-76
2021/08/06 08:13:58;;;;;;;;;1.00;0.25;;;;;20.03;65.43;100314.72;5068060;27;45603;-69
2021/08/06 08:16:23;;;;;;;;;0.00;0.00;;;;;20.03;66.17;100314.72;5065445;27;45515;-68
2021/08/06 08:18:50;;;;;;;;;1.00;0.25;;;;;20.02;66.49;100315.75;5070502;28;45902;-68
2021/08/06 08:21:15;;;;;;;;;1.75;1.00;;;;;20.01;66.64;100316.81;5067617;27;45594;-69
2021/08/06 08:23:40;;;;;;;;;1.00;1.00;;;;;19.95;66.90;100331.94;5053401;28;45945;-71
2021/08/06 08:26:06;;;;;;;;;0.00;0.00;;;;;19.92;67.14;100324.28;5067330;27;45460;-68
2021/08/06 08:28:31;;;;;;;;;0.25;0.25;;;;;19.92;67.15;100320.81;5069075;27;45479;-69
2021/08/06 08:30:57;;;;;;;;;2.75;1.00;;;;;19.90;67.64;100323.69;5070800;28;46218;-72
2021/08/06 08:33:22;;;;;;;;;2.00;1.00;;;;;19.93;67.88;100322.44;5057911;28;46271;-76
2021/08/06 08:35:49;;;;;;;;;0.00;0.00;;;;;19.92;67.11;100318.13;5067820;27;45906;-72
2021/08/06 08:38:15;;;;;;;;;0.50;0.50;;;;;19.97;67.04;100329.00;5068053;27;45602;-68
2021/08/06 08:40:41;;;;;;;;;1.00;1.00;;;;;20.05;66.63;100317.16;5067699;28;45493;-78
2021/08/06 08:43:08;;;;;;;;;1.00;1.00;;;;;20.06;66.59;100316.13;5068261;28;45673;-70
2021/08/06 08:45:39;;;;;;;;;0.50;0.50;;;;;20.06;66.11;100326.88;5048407;28;45682;-67
2021/08/06 08:48:06;;;;;;;;;1.00;0.50;;;;;20.10;66.92;100328.91;5068063;27;45599;-68
2021/08/06 08:50:31;;;;;;;;;1.00;0.25;;;;;20.13;66.33;100338.34;5068963;27;46123;-71
2021/08/06 08:52:57;;;;;;;;;2.00;1.00;;;;;20.13;66.06;100331.13;5068746;27;45527;-78
2021/08/06 08:55:22;;;;;;;;;0.00;0.00;;;;;20.11;65.11;100335.06;5066068;28;45904;-78
2021/08/06 08:57:48;;;;;;;;;1.75;0.00;;;;;20.05;65.34;100312.63;5067767;28;45613;-76
2021/08/06 09:00:15;;;;;;;;;0.50;0.50;;;;;20.06;65.01;100321.50;5070195;27;46123;-67
2021/08/06 09:02:41;;;;;;;;;0.00;0.00;;;;;20.14;65.14;100321.22;5068509;28;45498;-72
2021/08/06 09:05:17;;;;;;;;;0.25;0.00;;;;;20.32;64.85;100326.56;5067341;28;45739;-76
2021/08/06 09:07:43;;;;;;;;;1.00;0.75;;;;;20.59;64.42;100323.63;5068041;27;45733;-68
2021/08/06 09:10:11;;;;;;;;;2.00;0.50;;;;;20.84;62.91;100328.88;5067681;28;45380;-69
2021/08/06 09:12:53;;;;;;;;;1.00;0.00;;;;;21.08;63.37;100329.00;5061999;27;45652;-76
2021/08/06 09:15:44;;;;;;;;;0.50;0.00;;;;;21.23;62.95;100340.13;5070328;28;45570;-77
2021/08/06 09:18:27;;;;;;;;;1.50;1.25;;;;;21.25;62.49;100344.22;5062595;27;45535;-68
2021/08/06 09:21:00;;;;;;;;;1.50;0.00;;;;;21.27;61.98;100336.75;5066194;27;45914;-69
2021/08/06 09:23:35;;;;;;;;;0.50;0.00;;;;;21.24;61.90;100345.28;5064577;27;45807;-68
2021/08/06 09:26:00;;;;;;;;;1.25;0.50;;;;;21.18;61.99;100340.81;5068916;28;45417;-68
2021/08/06 09:28:26;;;;;;;;;2.50;0.50;;;;;21.11;62.96;100350.84;5066980;27;45461;-72
2021/08/06 09:30:51;;;;;;;;;0.25;0.25;;;;;20.99;62.55;100358.03;5061615;28;47289;-69
2021/08/06 09:33:31;;;;;;;;;1.00;0.25;;;;;20.89;63.95;100347.00;5067769;27;45569;-68
2021/08/06 09:36:13;;;;;;;;;1.00;0.00;;;;;20.92;65.27;100355.44;5071811;28;46135;-75
2021/08/06 09:38:39;;;;;;;;;1.00;0.00;;;;;21.03;65.31;100360.03;5066421;28;45515;-75
2021/08/06 09:41:05;;;;;;;;;1.00;1.00;;;;;21.24;64.55;100350.66;5066599;27;46310;-69
2021/08/06 09:43:30;;;;;;;;;1.00;0.00;;;;;21.44;63.76;100354.97;5068494;28;45491;-68
2021/08/06 09:45:56;;;;;;;;;0.75;0.75;;;;;21.48;61.41;100348.06;5068284;28;46006;-75
2021/08/06 09:48:26;;;;;;;;;0.00;0.00;;;;;21.39;62.91;100352.13;5050437;28;45591;-72
2021/08/06 09:50:52;;;;;;;;;0.00;0.00;;;;;21.32;62.37;100354.06;5065555;27;45623;-68
2021/08/06 09:53:23;;;;;;;;;1.25;1.00;;;;;21.18;62.81;100354.25;5069607;28;45390;-78
2021/08/06 09:55:50;;;;;;;;;0.50;0.50;;;;;21.11;63.52;100360.75;5067175;27;45531;-75
2021/08/06 09:58:19;;;;;;;;;0.50;0.50;;;;;21.00;63.45;100357.00;5066770;28;45477;-69
2021/08/06 10:00:47;;;;;;;;;0.50;0.25;;;;;20.94;63.76;100350.63;5068978;28;46074;-76
2021/08/06 10:03:35;;;;;;;;;2.00;0.50;;;;;20.96;64.10;100355.81;5060787;27;45571;-78
2021/08/06 10:06:12;;;;;;;;;0.00;0.00;;;;;21.03;62.68;100356.53;5066110;27;45589;-78
2021/08/06 10:08:38;;;;;;;;;1.00;0.00;;;;;21.07;63.44;100365.78;5065673;27;45628;-76
2021/08/06 10:11:04;;;;;;;;;0.75;0.75;;;;;21.19;62.82;100371.19;5067641;27;45527;-69
2021/08/06 10:13:29;;;;;;;;;0.75;0.25;;;;;21.38;62.56;100361.22;5065734;27;45609;-75
2021/08/06 10:15:55;;;;;;;;;2.75;1.75;;;;;21.65;62.66;100361.66;5068038;28;45548;-75
2021/08/06 10:18:21;;;;;;;;;0.75;0.00;;;;;21.97;62.02;100358.66;5062695;28;45501;-75
2021/08/06 10:20:49;;;;;;;;;1.00;1.00;;;;;22.10;61.11;100353.84;5066895;28;45568;-76
2021/08/06 10:23:14;;;;;;;;;1.00;1.00;;;;;22.12;60.87;100362.50;5064529;28;45612;-76
2021/08/06 10:25:40;;;;;;;;;2.00;0.50;;;;;22.19;59.93;100361.56;5066139;27;45659;-71
2021/08/06 10:28:06;;;;;;;;;1.00;0.50;;;;;22.11;59.57;100366.25;5067825;28;45752;-68
2021/08/06 10:30:41;;;;;;;;;0.00;0.00;;;;;22.03;59.65;100360.38;5068994;27;45616;-72
2021/08/06 10:33:22;;;;;;;;;0.75;0.00;;;;;21.90;59.86;100364.13;5064195;27;45422;-78
2021/08/06 10:35:55;;;;;;;;;2.00;0.00;;;;;21.82;59.75;100368.00;5060051;27;45480;-69
2021/08/06 10:38:41;;;;;;;;;2.00;0.00;;;;;21.91;60.66;100363.09;5067705;27;45575;-66
2021/08/06 10:41:14;;;;;;;;;1.50;0.00;;;;;21.97;59.93;100369.41;5064649;28;45622;-72
2021/08/06 10:43:58;;;;;;;;;0.25;0.25;;;;;22.08;60.16;100376.66;5064094;28;45672;-68
2021/08/06 10:46:23;;;;;;;;;2.00;1.25;;;;;22.16;60.08;100372.81;5062912;27;45552;-69
2021/08/06 10:48:55;;;;;;;;;0.00;0.00;;;;;22.17;59.25;100369.06;5053076;28;45759;-67
2021/08/06 10:51:22;;;;;;;;;1.00;1.00;;;;;22.12;58.88;100365.19;5066247;28;45527;-69
2021/08/06 10:53:59;;;;;;;;;0.00;0.00;;;;;22.05;59.14;100369.88;5048663;28;45942;-72
2021/08/06 10:56:26;;;;;;;;;0.75;0.75;;;;;21.98;58.95;100366.47;5073490;28;45431;-78
2021/08/06 10:58:54;;;;;;;;;1.75;0.00;;;;;21.94;59.09;100376.06;5050925;28;45569;-75
2021/08/06 11:01:32;;;;;;;;;1.75;0.00;;;;;22.06;59.62;100373.41;5069900;28;45582;-72
2021/08/06 11:03:59;;;;;;;;;1.00;0.00;;;;;22.23;59.11;100368.13;5069571;28;45469;-69
2021/08/06 11:06:48;;;;;;;;;0.75;0.00;;;;;22.50;58.36;100363.06;5048476;28;45597;-78
2021/08/06 11:09:23;;;;;;;;;0.00;0.00;;;;;22.72;57.79;100369.50;5063782;27;45591;-67
2021/08/06 11:11:59;;;;;;;;;2.00;1.00;;;;;22.98;58.20;100361.13;5068709;27;46242;-76
2021/08/06 11:14:33;;;;;;;;;0.00;0.00;;;;;23.18;56.33;100359.63;5065794;27;45616;-67
2021/08/06 11:17:17;;;;;;;;;2.00;0.50;;;;;23.18;57.40;100362.31;5059348;27;45630;-68
2021/08/06 11:19:44;;;;;;;;;0.00;0.00;;;;;23.17;57.40;100362.56;5073522;28;45588;-78
2021/08/06 11:22:16;;;;;;;;;1.00;1.00;;;;;23.18;57.40;100358.81;5071671;28;45512;-75
2021/08/06 11:24:47;;;;;;;;;1.25;1.00;;;;;23.15;54.98;100362.78;5070180;27;45650;-70
2021/08/06 11:27:15;;;;;;;;;1.00;1.00;;;;;23.02;55.77;100365.78;5068585;27;45554;-71